Accueil
METAR-TAF:

METAR-TAF

Aéroports :

Vladikavkaz, Russie

latitude: 43-12-18N, longitude: 044-36-24E, altitude: 510 m

Observation

Le bulletin a été fait il y a 34 minutes, à 12:30 UTC
Vent 4 kt de ouest
Température 1°C
Humidité 64%
Pression 1026 hPa
Visibilité 10 km ou plus
Nuages épars à une hauteur de 2300 ft

METAR: URMO 201230Z 27002MPS 9999 SCT023 01/M05 Q1026 R09/010070 NOSIG RMK QFE725/0967

Heure: 16:04 (13:04 UTC)

Prévision

Le bulletin a été fait il y a 2 heures et 4 minutes, à 11:00 UTC
Prévision valable du 20 à 12 UTC au 20 à 21 UTC
Vent 6 kt de est avec des rafales jusqu'à 16 kt
Visibilité 10 km ou plus
Nuages fragmentés à une hauteur de 2000 ft

TAF: URMO 201100Z 2012/2021 10003G08MPS 9999 BKN020

Observations et prévisions météorologiques de plus de 4000 aéroports (messages METAR et TAF).

Les stations disponibles sont représentées par des disques jaunes et rouges sur la carte.

Passer la souris dessus pour voir le nom de la station.

Cliquer dessus pour voir les observations et prévisions météorologiques.

Pour changer de carte: cliquez sur les boutons verts avec une croix noire pour zoomer, sur le bouton vert avec un tiret pour effectuer un zoom arrière, ou sur les flèches vertes pour les cartes adjacentes.


METAR-TAF: